sensor_id;sensor_type;location;lat;lon;timestamp;P1;durP1;ratioP1;P2;durP2;ratioP2
57567;SDS011;43403;51.948;5.922;2022-08-04T00:02:17;6.32;;;3.38;;
57567;SDS011;43403;51.948;5.922;2022-08-04T00:07:47;6.53;;;3.15;;
57567;SDS011;43403;51.948;5.922;2022-08-04T00:10:26;7.75;;;3.00;;
57567;SDS011;43403;51.948;5.922;2022-08-04T00:12:54;7.37;;;3.07;;
57567;SDS011;43403;51.948;5.922;2022-08-04T00:15:21;8.67;;;3.20;;
57567;SDS011;43403;51.948;5.922;2022-08-04T00:20:41;8.10;;;4.03;;
57567;SDS011;43403;51.948;5.922;2022-08-04T00:23:08;10.85;;;6.32;;
57567;SDS011;43403;51.948;5.922;2022-08-04T00:25:39;13.65;;;6.22;;
57567;SDS011;43403;51.948;5.922;2022-08-04T00:28:06;8.98;;;4.22;;
57567;SDS011;43403;51.948;5.922;2022-08-04T00:30:33;9.10;;;4.55;;
57567;SDS011;43403;51.948;5.922;2022-08-04T00:32:59;6.35;;;3.75;;
57567;SDS011;43403;51.948;5.922;2022-08-04T00:35:27;7.07;;;3.17;;
57567;SDS011;43403;51.948;5.922;2022-08-04T00:37:54;6.13;;;3.05;;
57567;SDS011;43403;51.948;5.922;2022-08-04T00:45:53;6.00;;;3.20;;
57567;SDS011;43403;51.948;5.922;2022-08-04T01:15:38;8.38;;;3.80;;
57567;SDS011;43403;51.948;5.922;2022-08-04T01:21:54;7.53;;;4.28;;
57567;SDS011;43403;51.948;5.922;2022-08-04T01:24:29;9.50;;;4.03;;
57567;SDS011;43403;51.948;5.922;2022-08-04T01:29:54;7.25;;;4.32;;
57567;SDS011;43403;51.948;5.922;2022-08-04T01:32:31;8.77;;;4.55;;
57567;SDS011;43403;51.948;5.922;2022-08-04T01:35:07;6.38;;;4.07;;
57567;SDS011;43403;51.948;5.922;2022-08-04T01:37:59;10.43;;;3.95;;
57567;SDS011;43403;51.948;5.922;2022-08-04T01:40:48;11.60;;;8.05;;
57567;SDS011;43403;51.948;5.922;2022-08-04T01:43:18;11.45;;;5.93;;
57567;SDS011;43403;51.948;5.922;2022-08-04T01:45:48;8.48;;;4.70;;
57567;SDS011;43403;51.948;5.922;2022-08-04T01:48:17;8.60;;;4.40;;
57567;SDS011;43403;51.948;5.922;2022-08-04T01:50:53;8.07;;;4.18;;
57567;SDS011;43403;51.948;5.922;2022-08-04T01:53:23;10.65;;;4.10;;
57567;SDS011;43403;51.948;5.922;2022-08-04T01:55:56;9.35;;;4.32;;
57567;SDS011;43403;51.948;5.922;2022-08-04T01:58:23;8.52;;;4.47;;
57567;SDS011;43403;51.948;5.922;2022-08-04T02:01:03;11.20;;;5.03;;
57567;SDS011;43403;51.948;5.922;2022-08-04T02:03:35;9.15;;;4.63;;
57567;SDS011;43403;51.948;5.922;2022-08-04T02:09:37;7.30;;;4.43;;
57567;SDS011;43403;51.948;5.922;2022-08-04T02:12:30;11.90;;;9.18;;
57567;SDS011;43403;51.948;5.922;2022-08-04T02:18:01;9.65;;;4.70;;
57567;SDS011;43403;51.948;5.922;2022-08-04T02:20:32;7.75;;;4.63;;
57567;SDS011;43403;51.948;5.922;2022-08-04T02:23:02;10.43;;;5.18;;
57567;SDS011;43403;51.948;5.922;2022-08-04T02:25:31;10.02;;;4.88;;
57567;SDS011;43403;51.948;5.922;2022-08-04T02:28:12;9.10;;;4.93;;
57567;SDS011;43403;51.948;5.922;2022-08-04T02:30:54;9.50;;;4.60;;
57567;SDS011;43403;51.948;5.922;2022-08-04T02:33:37;11.75;;;4.80;;
57567;SDS011;43403;51.948;5.922;2022-08-04T02:36:08;13.32;;;6.20;;
57567;SDS011;43403;51.948;5.922;2022-08-04T02:38:41;11.20;;;5.90;;
57567;SDS011;43403;51.948;5.922;2022-08-04T02:41:16;9.30;;;5.07;;
57567;SDS011;43403;51.948;5.922;2022-08-04T02:43:47;9.35;;;4.65;;
57567;SDS011;43403;51.948;5.922;2022-08-04T02:46:17;11.30;;;4.75;;
57567;SDS011;43403;51.948;5.922;2022-08-04T02:51:13;9.90;;;4.38;;
57567;SDS011;43403;51.948;5.922;2022-08-04T02:53:41;10.30;;;4.35;;
57567;SDS011;43403;51.948;5.922;2022-08-04T02:56:08;6.72;;;4.07;;
57567;SDS011;43403;51.948;5.922;2022-08-04T02:58:37;8.57;;;4.22;;
57567;SDS011;43403;51.948;5.922;2022-08-04T03:01:07;7.93;;;4.03;;
57567;SDS011;43403;51.948;5.922;2022-08-04T03:03:43;7.30;;;4.20;;
57567;SDS011;43403;51.948;5.922;2022-08-04T03:06:23;6.82;;;4.15;;
57567;SDS011;43403;51.948;5.922;2022-08-04T03:15:25;6.00;;;3.92;;
57567;SDS011;43403;51.948;5.922;2022-08-04T03:18:09;9.15;;;3.65;;
57567;SDS011;43403;51.948;5.922;2022-08-04T03:26:41;9.90;;;4.32;;
57567;SDS011;43403;51.948;5.922;2022-08-04T03:32:42;7.80;;;4.10;;
57567;SDS011;43403;51.948;5.922;2022-08-04T03:49:26;7.15;;;4.10;;
57567;SDS011;43403;51.948;5.922;2022-08-04T03:52:23;7.75;;;4.03;;
57567;SDS011;43403;51.948;5.922;2022-08-04T03:55:37;9.05;;;4.50;;
57567;SDS011;43403;51.948;5.922;2022-08-04T04:01:22;6.95;;;4.18;;
57567;SDS011;43403;51.948;5.922;2022-08-04T04:04:42;8.65;;;4.50;;
57567;SDS011;43403;51.948;5.922;2022-08-04T04:07:27;8.55;;;4.03;;
57567;SDS011;43403;51.948;5.922;2022-08-04T04:10:27;6.78;;;4.40;;
57567;SDS011;43403;51.948;5.922;2022-08-04T04:18:32;13.50;;;4.70;;
57567;SDS011;43403;51.948;5.922;2022-08-04T04:30:05;8.88;;;3.70;;
57567;SDS011;43403;51.948;5.922;2022-08-04T04:47:44;13.77;;;3.55;;
57567;SDS011;43403;51.948;5.922;2022-08-04T04:56:37;6.40;;;3.42;;
57567;SDS011;43403;51.948;5.922;2022-08-04T04:59:09;8.75;;;3.78;;
57567;SDS011;43403;51.948;5.922;2022-08-04T05:01:45;9.15;;;3.13;;
57567;SDS011;43403;51.948;5.922;2022-08-04T05:04:29;9.48;;;3.63;;
57567;SDS011;43403;51.948;5.922;2022-08-04T05:10:09;7.63;;;3.42;;
57567;SDS011;43403;51.948;5.922;2022-08-04T05:15:36;8.25;;;3.40;;
57567;SDS011;43403;51.948;5.922;2022-08-04T05:18:08;10.40;;;3.58;;
57567;SDS011;43403;51.948;5.922;2022-08-04T05:20:41;8.05;;;3.38;;
57567;SDS011;43403;51.948;5.922;2022-08-04T05:25:42;12.60;;;3.78;;
57567;SDS011;43403;51.948;5.922;2022-08-04T05:28:25;10.23;;;3.88;;
57567;SDS011;43403;51.948;5.922;2022-08-04T05:31:01;11.32;;;3.83;;
57567;SDS011;43403;51.948;5.922;2022-08-04T05:33:32;8.65;;;3.90;;
57567;SDS011;43403;51.948;5.922;2022-08-04T05:36:05;10.55;;;3.22;;
57567;SDS011;43403;51.948;5.922;2022-08-04T05:38:50;8.18;;;3.78;;
57567;SDS011;43403;51.948;5.922;2022-08-04T05:41:25;9.15;;;3.53;;
57567;SDS011;43403;51.948;5.922;2022-08-04T05:44:14;10.07;;;3.95;;
57567;SDS011;43403;51.948;5.922;2022-08-04T05:46:47;16.17;;;4.63;;
57567;SDS011;43403;51.948;5.922;2022-08-04T05:49:20;16.40;;;4.57;;
57567;SDS011;43403;51.948;5.922;2022-08-04T05:51:48;12.73;;;4.03;;
57567;SDS011;43403;51.948;5.922;2022-08-04T05:54:16;7.35;;;4.20;;
57567;SDS011;43403;51.948;5.922;2022-08-04T05:56:44;12.45;;;4.20;;
57567;SDS011;43403;51.948;5.922;2022-08-04T05:59:11;11.25;;;4.35;;
57567;SDS011;43403;51.948;5.922;2022-08-04T06:01:39;12.02;;;4.10;;
57567;SDS011;43403;51.948;5.922;2022-08-04T06:04:22;9.95;;;3.95;;
57567;SDS011;43403;51.948;5.922;2022-08-04T06:06:53;10.88;;;4.28;;
57567;SDS011;43403;51.948;5.922;2022-08-04T06:09:20;10.87;;;4.53;;
57567;SDS011;43403;51.948;5.922;2022-08-04T06:11:46;14.82;;;4.68;;
57567;SDS011;43403;51.948;5.922;2022-08-04T06:14:31;6.35;;;4.15;;
57567;SDS011;43403;51.948;5.922;2022-08-04T06:17:03;10.93;;;4.53;;
57567;SDS011;43403;51.948;5.922;2022-08-04T06:19:52;7.90;;;4.35;;
57567;SDS011;43403;51.948;5.922;2022-08-04T06:22:40;12.13;;;4.38;;
57567;SDS011;43403;51.948;5.922;2022-08-04T06:25:09;8.30;;;4.40;;
57567;SDS011;43403;51.948;5.922;2022-08-04T06:27:40;10.15;;;4.53;;
57567;SDS011;43403;51.948;5.922;2022-08-04T06:30:08;11.43;;;5.10;;
57567;SDS011;43403;51.948;5.922;2022-08-04T06:32:40;11.25;;;4.55;;
57567;SDS011;43403;51.948;5.922;2022-08-04T06:35:30;14.02;;;4.30;;
57567;SDS011;43403;51.948;5.922;2022-08-04T06:37:57;13.07;;;4.63;;
57567;SDS011;43403;51.948;5.922;2022-08-04T06:40:26;13.55;;;4.68;;
57567;SDS011;43403;51.948;5.922;2022-08-04T06:43:03;11.32;;;5.10;;
57567;SDS011;43403;51.948;5.922;2022-08-04T06:45:32;8.98;;;4.40;;
57567;SDS011;43403;51.948;5.922;2022-08-04T06:48:01;9.85;;;4.43;;
57567;SDS011;43403;51.948;5.922;2022-08-04T06:53:17;11.55;;;4.63;;
57567;SDS011;43403;51.948;5.922;2022-08-04T06:55:45;10.82;;;5.00;;
57567;SDS011;43403;51.948;5.922;2022-08-04T06:58:12;13.48;;;4.55;;
57567;SDS011;43403;51.948;5.922;2022-08-04T07:00:40;10.27;;;4.47;;
57567;SDS011;43403;51.948;5.922;2022-08-04T07:03:09;15.38;;;5.20;;
57567;SDS011;43403;51.948;5.922;2022-08-04T07:05:36;11.50;;;4.72;;
57567;SDS011;43403;51.948;5.922;2022-08-04T07:08:05;7.60;;;4.25;;
57567;SDS011;43403;51.948;5.922;2022-08-04T07:12:59;11.45;;;4.18;;
57567;SDS011;43403;51.948;5.922;2022-08-04T07:15:26;12.97;;;4.50;;
57567;SDS011;43403;51.948;5.922;2022-08-04T07:17:53;13.52;;;5.22;;
57567;SDS011;43403;51.948;5.922;2022-08-04T07:20:25;16.70;;;5.13;;
57567;SDS011;43403;51.948;5.922;2022-08-04T07:23:01;13.45;;;5.05;;
57567;SDS011;43403;51.948;5.922;2022-08-04T07:25:34;11.65;;;4.93;;
57567;SDS011;43403;51.948;5.922;2022-08-04T07:28:25;12.70;;;4.97;;
57567;SDS011;43403;51.948;5.922;2022-08-04T07:30:54;13.13;;;5.70;;
57567;SDS011;43403;51.948;5.922;2022-08-04T07:33:22;9.52;;;4.60;;
57567;SDS011;43403;51.948;5.922;2022-08-04T07:35:50;13.50;;;4.60;;
57567;SDS011;43403;51.948;5.922;2022-08-04T07:38:36;15.02;;;4.82;;
57567;SDS011;43403;51.948;5.922;2022-08-04T07:41:18;12.15;;;3.90;;
57567;SDS011;43403;51.948;5.922;2022-08-04T07:44:03;13.35;;;4.40;;
57567;SDS011;43403;51.948;5.922;2022-08-04T07:46:30;12.60;;;4.43;;
57567;SDS011;43403;51.948;5.922;2022-08-04T07:48:58;12.48;;;3.72;;
57567;SDS011;43403;51.948;5.922;2022-08-04T07:51:25;9.45;;;3.95;;
57567;SDS011;43403;51.948;5.922;2022-08-04T07:53:52;10.15;;;3.55;;
57567;SDS011;43403;51.948;5.922;2022-08-04T07:56:22;16.48;;;4.07;;
57567;SDS011;43403;51.948;5.922;2022-08-04T07:58:49;8.93;;;3.65;;
57567;SDS011;43403;51.948;5.922;2022-08-04T08:01:16;14.65;;;3.35;;
57567;SDS011;43403;51.948;5.922;2022-08-04T08:03:44;19.92;;;3.85;;
57567;SDS011;43403;51.948;5.922;2022-08-04T08:06:11;12.18;;;4.03;;
57567;SDS011;43403;51.948;5.922;2022-08-04T08:08:57;14.95;;;3.97;;
57567;SDS011;43403;51.948;5.922;2022-08-04T08:11:39;11.23;;;3.78;;
57567;SDS011;43403;51.948;5.922;2022-08-04T08:14:29;17.15;;;3.95;;
57567;SDS011;43403;51.948;5.922;2022-08-04T08:16:57;13.10;;;3.13;;
57567;SDS011;43403;51.948;5.922;2022-08-04T08:19:25;9.82;;;2.90;;
57567;SDS011;43403;51.948;5.922;2022-08-04T08:21:51;10.23;;;3.10;;
57567;SDS011;43403;51.948;5.922;2022-08-04T08:24:25;12.20;;;3.42;;
57567;SDS011;43403;51.948;5.922;2022-08-04T08:26:53;10.52;;;3.53;;
57567;SDS011;43403;51.948;5.922;2022-08-04T08:31:47;15.90;;;3.95;;
57567;SDS011;43403;51.948;5.922;2022-08-04T08:34:24;15.98;;;3.85;;
57567;SDS011;43403;51.948;5.922;2022-08-04T08:39:52;10.18;;;3.90;;
57567;SDS011;43403;51.948;5.922;2022-08-04T08:45:58;9.82;;;3.58;;
57567;SDS011;43403;51.948;5.922;2022-08-04T08:52:32;10.88;;;3.60;;
57567;SDS011;43403;51.948;5.922;2022-08-04T09:00:53;9.98;;;4.05;;
57567;SDS011;43403;51.948;5.922;2022-08-04T09:11:48;9.32;;;3.85;;
57567;SDS011;43403;51.948;5.922;2022-08-04T09:14:25;10.65;;;4.88;;
57567;SDS011;43403;51.948;5.922;2022-08-04T09:17:01;13.98;;;4.80;;
57567;SDS011;43403;51.948;5.922;2022-08-04T09:19:35;9.55;;;4.43;;
57567;SDS011;43403;51.948;5.922;2022-08-04T09:22:12;11.82;;;5.00;;
57567;SDS011;43403;51.948;5.922;2022-08-04T09:27:30;13.60;;;5.40;;
57567;SDS011;43403;51.948;5.922;2022-08-04T09:30:09;12.40;;;6.18;;
57567;SDS011;43403;51.948;5.922;2022-08-04T09:41:01;16.48;;;5.72;;
57567;SDS011;43403;51.948;5.922;2022-08-04T09:56:25;12.70;;;4.85;;
57567;SDS011;43403;51.948;5.922;2022-08-04T09:59:00;14.00;;;5.03;;
57567;SDS011;43403;51.948;5.922;2022-08-04T10:01:39;12.20;;;4.60;;
57567;SDS011;43403;51.948;5.922;2022-08-04T10:04:08;8.90;;;4.05;;
57567;SDS011;43403;51.948;5.922;2022-08-04T10:15:35;10.20;;;3.58;;
57567;SDS011;43403;51.948;5.922;2022-08-04T10:18:16;8.82;;;2.80;;
57567;SDS011;43403;51.948;5.922;2022-08-04T10:23:41;7.97;;;2.72;;
57567;SDS011;43403;51.948;5.922;2022-08-04T10:29:14;10.73;;;2.22;;
57567;SDS011;43403;51.948;5.922;2022-08-04T10:32:16;9.95;;;2.58;;
57567;SDS011;43403;51.948;5.922;2022-08-04T10:34:56;8.23;;;2.45;;
57567;SDS011;43403;51.948;5.922;2022-08-04T10:37:30;9.30;;;2.15;;
57567;SDS011;43403;51.948;5.922;2022-08-04T10:40:23;8.00;;;2.33;;
57567;SDS011;43403;51.948;5.922;2022-08-04T10:46:09;8.35;;;2.17;;
57567;SDS011;43403;51.948;5.922;2022-08-04T10:48:40;8.68;;;2.70;;
57567;SDS011;43403;51.948;5.922;2022-08-04T10:57:03;11.60;;;2.83;;
57567;SDS011;43403;51.948;5.922;2022-08-04T10:59:36;9.35;;;2.75;;
57567;SDS011;43403;51.948;5.922;2022-08-04T11:05:00;6.53;;;2.30;;
57567;SDS011;43403;51.948;5.922;2022-08-04T11:07:50;8.25;;;2.40;;
57567;SDS011;43403;51.948;5.922;2022-08-04T11:10:20;14.40;;;2.85;;
57567;SDS011;43403;51.948;5.922;2022-08-04T11:12:52;8.70;;;2.38;;
57567;SDS011;43403;51.948;5.922;2022-08-04T11:15:32;13.40;;;3.35;;
57567;SDS011;43403;51.948;5.922;2022-08-04T11:18:05;10.90;;;3.10;;
57567;SDS011;43403;51.948;5.922;2022-08-04T11:20:43;7.75;;;3.15;;
57567;SDS011;43403;51.948;5.922;2022-08-04T11:23:19;13.07;;;4.13;;
57567;SDS011;43403;51.948;5.922;2022-08-04T11:25:54;10.38;;;3.40;;
57567;SDS011;43403;51.948;5.922;2022-08-04T11:29:11;12.70;;;4.50;;
57567;SDS011;43403;51.948;5.922;2022-08-04T11:31:34;13.93;;;4.00;;
57567;SDS011;43403;51.948;5.922;2022-08-04T11:37:33;8.77;;;3.88;;
57567;SDS011;43403;51.948;5.922;2022-08-04T11:44:47;9.55;;;3.30;;
57567;SDS011;43403;51.948;5.922;2022-08-04T11:50:01;7.68;;;3.40;;
57567;SDS011;43403;51.948;5.922;2022-08-04T11:52:28;9.55;;;3.40;;
57567;SDS011;43403;51.948;5.922;2022-08-04T11:54:55;12.23;;;3.35;;
57567;SDS011;43403;51.948;5.922;2022-08-04T11:57:24;9.50;;;3.38;;
57567;SDS011;43403;51.948;5.922;2022-08-04T12:00:03;8.00;;;3.15;;
57567;SDS011;43403;51.948;5.922;2022-08-04T12:05:14;11.07;;;3.40;;
57567;SDS011;43403;51.948;5.922;2022-08-04T12:08:21;11.20;;;2.80;;
57567;SDS011;43403;51.948;5.922;2022-08-04T12:10:59;12.55;;;3.47;;
57567;SDS011;43403;51.948;5.922;2022-08-04T12:14:09;6.22;;;3.00;;
57567;SDS011;43403;51.948;5.922;2022-08-04T12:17:04;8.73;;;3.67;;
57567;SDS011;43403;51.948;5.922;2022-08-04T12:19:34;17.02;;;4.03;;
57567;SDS011;43403;51.948;5.922;2022-08-04T12:22:24;7.80;;;3.35;;
57567;SDS011;43403;51.948;5.922;2022-08-04T12:25:07;6.50;;;3.38;;
57567;SDS011;43403;51.948;5.922;2022-08-04T12:27:44;10.45;;;3.70;;
57567;SDS011;43403;51.948;5.922;2022-08-04T12:30:15;9.20;;;4.10;;
57567;SDS011;43403;51.948;5.922;2022-08-04T12:33:11;11.43;;;4.18;;
57567;SDS011;43403;51.948;5.922;2022-08-04T12:35:46;9.43;;;3.50;;
57567;SDS011;43403;51.948;5.922;2022-08-04T12:38:37;11.48;;;3.20;;
57567;SDS011;43403;51.948;5.922;2022-08-04T12:41:09;9.80;;;3.10;;
57567;SDS011;43403;51.948;5.922;2022-08-04T12:43:41;7.85;;;3.40;;
57567;SDS011;43403;51.948;5.922;2022-08-04T12:46:08;12.52;;;3.38;;
57567;SDS011;43403;51.948;5.922;2022-08-04T12:48:37;7.40;;;3.03;;
57567;SDS011;43403;51.948;5.922;2022-08-04T12:51:06;8.82;;;3.00;;
57567;SDS011;43403;51.948;5.922;2022-08-04T12:53:55;8.95;;;3.38;;
57567;SDS011;43403;51.948;5.922;2022-08-04T12:56:24;7.63;;;2.78;;
57567;SDS011;43403;51.948;5.922;2022-08-04T12:58:59;6.05;;;2.42;;
57567;SDS011;43403;51.948;5.922;2022-08-04T13:01:27;5.38;;;2.72;;
57567;SDS011;43403;51.948;5.922;2022-08-04T13:04:18;6.45;;;3.20;;
57567;SDS011;43403;51.948;5.922;2022-08-04T13:06:55;7.18;;;2.88;;
57567;SDS011;43403;51.948;5.922;2022-08-04T13:09:28;8.45;;;3.30;;
57567;SDS011;43403;51.948;5.922;2022-08-04T13:11:59;6.40;;;3.55;;
57567;SDS011;43403;51.948;5.922;2022-08-04T13:14:30;5.25;;;3.20;;
57567;SDS011;43403;51.948;5.922;2022-08-04T13:17:00;10.32;;;3.63;;
57567;SDS011;43403;51.948;5.922;2022-08-04T13:19:27;8.20;;;3.22;;
57567;SDS011;43403;51.948;5.922;2022-08-04T13:21:55;8.75;;;3.10;;
57567;SDS011;43403;51.948;5.922;2022-08-04T13:24:28;7.40;;;3.95;;
57567;SDS011;43403;51.948;5.922;2022-08-04T13:26:59;8.00;;;3.38;;
57567;SDS011;43403;51.948;5.922;2022-08-04T13:29:37;12.02;;;3.20;;
57567;SDS011;43403;51.948;5.922;2022-08-04T13:32:25;7.60;;;3.45;;
57567;SDS011;43403;51.948;5.922;2022-08-04T13:34:54;11.25;;;3.95;;
57567;SDS011;43403;51.948;5.922;2022-08-04T13:37:25;6.70;;;3.05;;
57567;SDS011;43403;51.948;5.922;2022-08-04T13:39:58;9.40;;;3.03;;
57567;SDS011;43403;51.948;5.922;2022-08-04T13:42:25;8.02;;;2.97;;
57567;SDS011;43403;51.948;5.922;2022-08-04T13:44:53;6.97;;;2.95;;
57567;SDS011;43403;51.948;5.922;2022-08-04T13:47:24;8.90;;;3.58;;
57567;SDS011;43403;51.948;5.922;2022-08-04T13:52:56;9.20;;;2.92;;
57567;SDS011;43403;51.948;5.922;2022-08-04T13:58:06;9.65;;;3.17;;
57567;SDS011;43403;51.948;5.922;2022-08-04T14:00:37;8.48;;;2.55;;
57567;SDS011;43403;51.948;5.922;2022-08-04T14:03:08;7.53;;;2.63;;
57567;SDS011;43403;51.948;5.922;2022-08-04T14:11:18;8.82;;;2.55;;
57567;SDS011;43403;51.948;5.922;2022-08-04T14:14:25;7.38;;;2.38;;
57567;SDS011;43403;51.948;5.922;2022-08-04T14:16:55;11.60;;;2.40;;
57567;SDS011;43403;51.948;5.922;2022-08-04T14:19:24;8.82;;;2.88;;
57567;SDS011;43403;51.948;5.922;2022-08-04T14:22:01;5.70;;;2.30;;
57567;SDS011;43403;51.948;5.922;2022-08-04T14:24:28;8.23;;;2.28;;
57567;SDS011;43403;51.948;5.922;2022-08-04T14:26:57;6.85;;;2.47;;
57567;SDS011;43403;51.948;5.922;2022-08-04T14:29:25;7.82;;;2.50;;
57567;SDS011;43403;51.948;5.922;2022-08-04T14:32:02;7.40;;;2.53;;
57567;SDS011;43403;51.948;5.922;2022-08-04T14:34:40;6.05;;;2.47;;
57567;SDS011;43403;51.948;5.922;2022-08-04T14:37:11;6.35;;;2.88;;
57567;SDS011;43403;51.948;5.922;2022-08-04T14:39:50;7.15;;;2.35;;
57567;SDS011;43403;51.948;5.922;2022-08-04T14:42:44;7.68;;;2.72;;
57567;SDS011;43403;51.948;5.922;2022-08-04T14:45:31;8.45;;;2.30;;
57567;SDS011;43403;51.948;5.922;2022-08-04T14:47:58;7.20;;;2.13;;
57567;SDS011;43403;51.948;5.922;2022-08-04T14:53:27;8.25;;;2.00;;
57567;SDS011;43403;51.948;5.922;2022-08-04T14:55:56;5.95;;;1.80;;
57567;SDS011;43403;51.948;5.922;2022-08-04T14:58:32;5.63;;;1.83;;
57567;SDS011;43403;51.948;5.922;2022-08-04T15:01:08;6.68;;;2.25;;
57567;SDS011;43403;51.948;5.922;2022-08-04T15:03:42;4.97;;;2.17;;
57567;SDS011;43403;51.948;5.922;2022-08-04T15:06:22;8.13;;;2.00;;
57567;SDS011;43403;51.948;5.922;2022-08-04T15:08:53;6.22;;;2.00;;
57567;SDS011;43403;51.948;5.922;2022-08-04T15:11:22;6.35;;;1.88;;
57567;SDS011;43403;51.948;5.922;2022-08-04T15:13:53;8.40;;;2.08;;
57567;SDS011;43403;51.948;5.922;2022-08-04T15:16:22;5.38;;;2.15;;
57567;SDS011;43403;51.948;5.922;2022-08-04T15:18:50;5.13;;;1.90;;
57567;SDS011;43403;51.948;5.922;2022-08-04T15:21:20;4.03;;;1.45;;
57567;SDS011;43403;51.948;5.922;2022-08-04T15:26:16;5.07;;;1.83;;
57567;SDS011;43403;51.948;5.922;2022-08-04T15:28:50;2.97;;;1.70;;
57567;SDS011;43403;51.948;5.922;2022-08-04T15:31:21;7.15;;;1.98;;
57567;SDS011;43403;51.948;5.922;2022-08-04T15:34:09;4.35;;;1.80;;
57567;SDS011;43403;51.948;5.922;2022-08-04T15:36:37;6.80;;;2.22;;
57567;SDS011;43403;51.948;5.922;2022-08-04T15:42:24;6.97;;;1.92;;
57567;SDS011;43403;51.948;5.922;2022-08-04T15:45:11;3.97;;;1.63;;
57567;SDS011;43403;51.948;5.922;2022-08-04T15:47:40;4.10;;;1.55;;
57567;SDS011;43403;51.948;5.922;2022-08-04T15:50:18;3.60;;;1.75;;
57567;SDS011;43403;51.948;5.922;2022-08-04T15:55:36;5.70;;;2.10;;
57567;SDS011;43403;51.948;5.922;2022-08-04T16:19:05;6.13;;;1.85;;
57567;SDS011;43403;51.948;5.922;2022-08-04T16:21:51;4.25;;;2.08;;
57567;SDS011;43403;51.948;5.922;2022-08-04T16:24:29;4.18;;;2.00;;
57567;SDS011;43403;51.948;5.922;2022-08-04T16:27:04;3.45;;;1.98;;
57567;SDS011;43403;51.948;5.922;2022-08-04T16:29:34;7.72;;;1.98;;
57567;SDS011;43403;51.948;5.922;2022-08-04T16:32:09;5.25;;;1.77;;
57567;SDS011;43403;51.948;5.922;2022-08-04T16:37:23;6.55;;;1.80;;
57567;SDS011;43403;51.948;5.922;2022-08-04T16:43:01;4.32;;;1.60;;
57567;SDS011;43403;51.948;5.922;2022-08-04T16:48:11;5.15;;;1.90;;
57567;SDS011;43403;51.948;5.922;2022-08-04T16:50:51;4.03;;;1.42;;
57567;SDS011;43403;51.948;5.922;2022-08-04T16:56:26;4.90;;;2.20;;
57567;SDS011;43403;51.948;5.922;2022-08-04T16:58:55;5.70;;;1.70;;
57567;SDS011;43403;51.948;5.922;2022-08-04T17:01:22;3.80;;;1.65;;
57567;SDS011;43403;51.948;5.922;2022-08-04T17:03:58;5.68;;;2.00;;
57567;SDS011;43403;51.948;5.922;2022-08-04T17:06:34;4.03;;;1.70;;
57567;SDS011;43403;51.948;5.922;2022-08-04T17:09:09;4.70;;;1.77;;
57567;SDS011;43403;51.948;5.922;2022-08-04T17:11:40;6.45;;;1.70;;
57567;SDS011;43403;51.948;5.922;2022-08-04T17:14:08;3.03;;;1.40;;
57567;SDS011;43403;51.948;5.922;2022-08-04T17:16:36;4.03;;;1.90;;
57567;SDS011;43403;51.948;5.922;2022-08-04T17:19:06;4.47;;;1.60;;
57567;SDS011;43403;51.948;5.922;2022-08-04T17:21:59;6.30;;;1.73;;
57567;SDS011;43403;51.948;5.922;2022-08-04T17:24:32;5.38;;;2.03;;
57567;SDS011;43403;51.948;5.922;2022-08-04T17:27:04;6.80;;;1.70;;
57567;SDS011;43403;51.948;5.922;2022-08-04T17:29:51;3.50;;;1.38;;
57567;SDS011;43403;51.948;5.922;2022-08-04T17:32:18;4.63;;;1.63;;
57567;SDS011;43403;51.948;5.922;2022-08-04T17:34:50;4.35;;;1.40;;
57567;SDS011;43403;51.948;5.922;2022-08-04T17:37:19;2.80;;;1.63;;
57567;SDS011;43403;51.948;5.922;2022-08-04T17:40:11;5.47;;;1.63;;
57567;SDS011;43403;51.948;5.922;2022-08-04T17:42:43;3.13;;;1.63;;
57567;SDS011;43403;51.948;5.922;2022-08-04T17:45:17;6.30;;;1.52;;
57567;SDS011;43403;51.948;5.922;2022-08-04T17:48:05;2.90;;;1.35;;
57567;SDS011;43403;51.948;5.922;2022-08-04T17:50:34;4.40;;;1.38;;
57567;SDS011;43403;51.948;5.922;2022-08-04T17:53:04;11.00;;;1.45;;
57567;SDS011;43403;51.948;5.922;2022-08-04T17:58:21;6.63;;;1.70;;
57567;SDS011;43403;51.948;5.922;2022-08-04T18:01:01;4.07;;;1.70;;
57567;SDS011;43403;51.948;5.922;2022-08-04T18:03:48;5.07;;;1.70;;
57567;SDS011;43403;51.948;5.922;2022-08-04T18:06:19;4.05;;;1.58;;
57567;SDS011;43403;51.948;5.922;2022-08-04T18:08:52;5.03;;;1.63;;
57567;SDS011;43403;51.948;5.922;2022-08-04T18:11:24;3.33;;;1.45;;
57567;SDS011;43403;51.948;5.922;2022-08-04T18:14:07;3.38;;;1.35;;
57567;SDS011;43403;51.948;5.922;2022-08-04T18:16:41;3.50;;;1.40;;
57567;SDS011;43403;51.948;5.922;2022-08-04T18:19:10;5.38;;;1.73;;
57567;SDS011;43403;51.948;5.922;2022-08-04T18:21:38;4.40;;;1.45;;
57567;SDS011;43403;51.948;5.922;2022-08-04T18:24:25;4.30;;;1.42;;
57567;SDS011;43403;51.948;5.922;2022-08-04T18:27:15;3.42;;;1.30;;
57567;SDS011;43403;51.948;5.922;2022-08-04T18:29:43;4.57;;;1.80;;
57567;SDS011;43403;51.948;5.922;2022-08-04T18:32:29;2.47;;;1.27;;
57567;SDS011;43403;51.948;5.922;2022-08-04T18:34:58;5.55;;;1.55;;
57567;SDS011;43403;51.948;5.922;2022-08-04T18:37:32;4.43;;;1.50;;
57567;SDS011;43403;51.948;5.922;2022-08-04T18:43:06;4.37;;;1.40;;
57567;SDS011;43403;51.948;5.922;2022-08-04T18:45:39;6.60;;;1.60;;
57567;SDS011;43403;51.948;5.922;2022-08-04T18:48:16;3.03;;;1.23;;
57567;SDS011;43403;51.948;5.922;2022-08-04T18:53:30;4.60;;;1.48;;
57567;SDS011;43403;51.948;5.922;2022-08-04T18:56:01;2.63;;;1.42;;
57567;SDS011;43403;51.948;5.922;2022-08-04T18:58:28;3.38;;;1.45;;
57567;SDS011;43403;51.948;5.922;2022-08-04T19:00:54;9.88;;;1.63;;
57567;SDS011;43403;51.948;5.922;2022-08-04T19:03:26;3.28;;;1.42;;
57567;SDS011;43403;51.948;5.922;2022-08-04T19:05:58;4.85;;;1.40;;
57567;SDS011;43403;51.948;5.922;2022-08-04T19:08:26;3.85;;;1.20;;
57567;SDS011;43403;51.948;5.922;2022-08-04T19:11:00;3.78;;;1.35;;
57567;SDS011;43403;51.948;5.922;2022-08-04T19:13:47;6.85;;;1.92;;
57567;SDS011;43403;51.948;5.922;2022-08-04T19:16:23;3.88;;;1.42;;
57567;SDS011;43403;51.948;5.922;2022-08-04T19:18:50;4.88;;;2.38;;
57567;SDS011;43403;51.948;5.922;2022-08-04T19:21:16;5.45;;;2.63;;
57567;SDS011;43403;51.948;5.922;2022-08-04T19:23:43;2.80;;;1.63;;
57567;SDS011;43403;51.948;5.922;2022-08-04T19:26:30;5.15;;;1.90;;
57567;SDS011;43403;51.948;5.922;2022-08-04T19:28:57;5.70;;;1.57;;
57567;SDS011;43403;51.948;5.922;2022-08-04T19:31:23;4.38;;;1.48;;
57567;SDS011;43403;51.948;5.922;2022-08-04T19:34:06;8.20;;;1.60;;
57567;SDS011;43403;51.948;5.922;2022-08-04T19:36:33;7.83;;;1.93;;
57567;SDS011;43403;51.948;5.922;2022-08-04T19:39:05;6.20;;;2.03;;
57567;SDS011;43403;51.948;5.922;2022-08-04T19:41:37;4.60;;;1.90;;
57567;SDS011;43403;51.948;5.922;2022-08-04T19:44:23;6.40;;;1.80;;
57567;SDS011;43403;51.948;5.922;2022-08-04T19:46:54;3.58;;;1.67;;
57567;SDS011;43403;51.948;5.922;2022-08-04T19:49:25;4.00;;;1.20;;
57567;SDS011;43403;51.948;5.922;2022-08-04T19:52:12;4.85;;;1.50;;
57567;SDS011;43403;51.948;5.922;2022-08-04T19:54:38;4.65;;;1.60;;
57567;SDS011;43403;51.948;5.922;2022-08-04T19:57:06;4.65;;;1.73;;
57567;SDS011;43403;51.948;5.922;2022-08-04T19:59:34;2.83;;;1.67;;
57567;SDS011;43403;51.948;5.922;2022-08-04T20:02:00;3.60;;;1.35;;
57567;SDS011;43403;51.948;5.922;2022-08-04T20:04:27;4.50;;;1.50;;
57567;SDS011;43403;51.948;5.922;2022-08-04T20:06:56;4.78;;;1.73;;
57567;SDS011;43403;51.948;5.922;2022-08-04T20:09:22;4.72;;;1.85;;
57567;SDS011;43403;51.948;5.922;2022-08-04T20:11:53;4.28;;;1.63;;
57567;SDS011;43403;51.948;5.922;2022-08-04T20:14:25;4.65;;;1.65;;
57567;SDS011;43403;51.948;5.922;2022-08-04T20:17:13;3.58;;;1.80;;
57567;SDS011;43403;51.948;5.922;2022-08-04T20:19:43;7.25;;;2.00;;